createdAt,value
2024-03-16T00:02:04.743Z,61.41
2024-03-16T00:04:31.323Z,61.50
2024-03-16T00:06:59.245Z,62.30
2024-03-16T00:09:26.029Z,61.62
2024-03-16T00:11:52.820Z,62.14
2024-03-16T00:14:19.310Z,62.05
2024-03-16T00:16:45.812Z,61.83
2024-03-16T00:19:12.364Z,61.26
2024-03-16T00:21:38.914Z,61.62
2024-03-16T00:24:05.619Z,61.37
2024-03-16T00:26:32.076Z,61.36
2024-03-16T00:28:59.497Z,61.35
2024-03-16T00:31:26.000Z,60.52
2024-03-16T00:33:52.600Z,60.40
2024-03-16T00:36:19.070Z,59.84
2024-03-16T00:38:50.741Z,60.02
2024-03-16T00:41:20.898Z,60.12
2024-03-16T00:43:47.526Z,59.64
2024-03-16T00:46:14.334Z,59.66
2024-03-16T00:48:40.945Z,59.61
2024-03-16T00:51:07.502Z,60.17
2024-03-16T00:53:33.985Z,60.63
2024-03-16T00:56:00.946Z,60.05
2024-03-16T00:58:28.584Z,60.12
2024-03-16T01:00:55.224Z,59.43
2024-03-16T01:03:21.876Z,59.20
2024-03-16T01:05:52.237Z,59.54
2024-03-16T01:08:18.808Z,60.62
2024-03-16T01:10:45.340Z,59.87
2024-03-16T01:13:11.880Z,59.81
2024-03-16T01:15:38.456Z,61.10
2024-03-16T01:18:05.025Z,60.45
2024-03-16T01:20:31.594Z,60.87
2024-03-16T01:22:59.903Z,60.41
2024-03-16T01:25:26.407Z,60.60
2024-03-16T01:27:52.899Z,60.67
2024-03-16T01:30:22.639Z,60.11
2024-03-16T01:32:49.148Z,60.34
2024-03-16T01:35:15.661Z,59.93
2024-03-16T01:37:42.297Z,60.08
2024-03-16T01:40:09.386Z,60.15
2024-03-16T01:42:36.235Z,60.41
2024-03-16T01:45:08.300Z,60.63
2024-03-16T01:47:35.020Z,60.45
2024-03-16T01:50:01.622Z,60.69
2024-03-16T01:52:28.235Z,61.44
2024-03-16T01:54:54.865Z,61.64
2024-03-16T01:57:21.372Z,62.80
2024-03-16T01:59:50.074Z,62.68
2024-03-16T02:02:37.948Z,62.12
2024-03-16T02:05:05.468Z,61.40
2024-03-16T02:07:35.908Z,60.82
2024-03-16T02:10:05.908Z,61.12
2024-03-16T02:12:32.761Z,61.07
2024-03-16T02:14:59.326Z,60.83
2024-03-16T02:17:25.828Z,60.24
2024-03-16T02:19:52.758Z,60.05
2024-03-16T02:22:20.242Z,59.79
2024-03-16T02:24:49.837Z,60.54
2024-03-16T02:27:17.473Z,59.85
2024-03-16T02:29:43.960Z,60.47
2024-03-16T02:32:12.050Z,60.73
2024-03-16T02:34:38.773Z,60.70
2024-03-16T02:37:06.244Z,61.13
2024-03-16T02:39:33.743Z,60.76
2024-03-16T02:42:01.120Z,60.46
2024-03-16T02:44:27.786Z,61.15
2024-03-16T02:46:54.667Z,61.02
2024-03-16T02:49:22.320Z,60.60
2024-03-16T02:51:51.749Z,60.77
2024-03-16T02:54:19.159Z,60.99
2024-03-16T02:56:46.494Z,60.82
2024-03-16T02:59:13.753Z,60.91
2024-03-16T03:01:40.624Z,60.99
2024-03-16T03:04:08.718Z,61.08
2024-03-16T03:06:35.414Z,60.62
2024-03-16T03:09:02.037Z,61.05
2024-03-16T03:11:28.594Z,61.73
2024-03-16T03:13:56.032Z,61.37
2024-03-16T03:16:22.534Z,61.37
2024-03-16T03:18:49.862Z,61.59
2024-03-16T03:21:16.566Z,61.77
2024-03-16T03:23:43.142Z,61.60
2024-03-16T03:26:10.710Z,61.21
2024-03-16T03:28:37.338Z,61.51
2024-03-16T03:31:09.887Z,61.25
2024-03-16T03:33:36.438Z,61.14
2024-03-16T03:36:06.918Z,61.19
2024-03-16T03:38:34.005Z,60.77
2024-03-16T03:41:01.111Z,60.46
2024-03-16T03:43:27.721Z,60.28
2024-03-16T03:45:54.419Z,60.05
2024-03-16T03:48:24.259Z,60.79
2024-03-16T03:50:51.265Z,60.47
2024-03-16T03:53:18.425Z,60.58
2024-03-16T03:55:45.973Z,60.29
2024-03-16T03:58:12.737Z,60.46
2024-03-16T04:00:39.681Z,59.65
2024-03-16T04:03:07.907Z,60.41
2024-03-16T04:05:34.594Z,60.47
2024-03-16T04:08:01.906Z,60.39
2024-03-16T04:10:28.600Z,60.48
2024-03-16T04:12:55.351Z,60.50
2024-03-16T04:15:21.925Z,59.90
2024-03-16T04:17:48.545Z,59.90
2024-03-16T04:20:15.033Z,59.49
2024-03-16T04:22:44.780Z,59.51
2024-03-16T04:25:15.297Z,59.09
2024-03-16T04:27:44.938Z,59.31
2024-03-16T04:30:12.703Z,59.11
2024-03-16T04:32:39.233Z,59.28
2024-03-16T04:35:06.738Z,59.78
2024-03-16T04:37:36.726Z,59.50
2024-03-16T04:40:05.711Z,59.14
2024-03-16T04:42:32.735Z,59.03
2024-03-16T04:44:59.399Z,59.56
2024-03-16T04:47:25.857Z,59.21
2024-03-16T04:49:52.393Z,59.22
2024-03-16T04:52:18.785Z,59.36
2024-03-16T04:54:46.318Z,58.33
2024-03-16T04:57:13.582Z,58.09
2024-03-16T04:59:40.847Z,57.82
2024-03-16T05:02:07.397Z,57.61
2024-03-16T05:04:33.991Z,57.88
2024-03-16T05:07:01.374Z,57.55
2024-03-16T05:09:28.345Z,57.69
2024-03-16T05:11:54.969Z,57.80
2024-03-16T05:14:21.547Z,57.22
2024-03-16T05:16:47.992Z,56.95
2024-03-16T05:19:14.504Z,58.01
2024-03-16T05:21:42.182Z,57.53
2024-03-16T05:24:08.846Z,58.28
2024-03-16T05:26:35.718Z,58.42
2024-03-16T05:29:02.283Z,58.90
2024-03-16T05:31:28.700Z,58.67
2024-03-16T05:33:55.220Z,59.15
2024-03-16T05:36:21.674Z,59.33
2024-03-16T05:38:48.169Z,58.91
2024-03-16T05:41:14.815Z,58.72
2024-03-16T05:43:44.256Z,58.04
2024-03-16T05:46:13.622Z,57.26
2024-03-16T05:48:40.234Z,57.81
2024-03-16T05:51:06.856Z,57.62
2024-03-16T05:53:33.340Z,57.45
2024-03-16T05:55:59.834Z,57.19
2024-03-16T05:58:26.885Z,56.71
2024-03-16T06:00:53.404Z,56.49
2024-03-16T06:03:19.941Z,56.66
2024-03-16T06:05:47.073Z,56.84
2024-03-16T06:08:15.177Z,57.09
2024-03-16T06:10:42.621Z,56.19
2024-03-16T06:13:11.770Z,56.50
2024-03-16T06:15:40.569Z,57.54
2024-03-16T06:18:07.715Z,57.26
2024-03-16T06:20:34.656Z,57.67
2024-03-16T06:23:01.198Z,57.73
2024-03-16T06:25:30.426Z,57.48
2024-03-16T06:28:06.676Z,57.14
2024-03-16T06:30:33.573Z,57.46
2024-03-16T06:33:12.595Z,56.50
2024-03-16T06:35:42.713Z,56.34
2024-03-16T06:38:09.653Z,56.00
2024-03-16T06:40:36.398Z,55.55
2024-03-16T06:43:03.461Z,55.31
2024-03-16T06:45:30.074Z,56.06
2024-03-16T06:47:56.634Z,56.13
2024-03-16T06:50:23.332Z,56.95
2024-03-16T06:52:49.960Z,57.95
2024-03-16T06:55:18.982Z,58.25
2024-03-16T06:57:46.190Z,57.55
2024-03-16T07:00:13.422Z,57.07
2024-03-16T07:02:39.932Z,57.12
2024-03-16T07:05:08.733Z,56.54
2024-03-16T07:07:35.239Z,56.37
2024-03-16T07:10:02.149Z,55.83
2024-03-16T07:12:28.800Z,56.22
2024-03-16T07:14:55.325Z,55.74
2024-03-16T07:17:21.896Z,55.40
2024-03-16T07:19:48.362Z,55.04
2024-03-16T07:22:15.008Z,55.29
2024-03-16T07:24:41.560Z,55.05
2024-03-16T07:27:08.546Z,53.88
2024-03-16T07:29:35.097Z,54.02
2024-03-16T07:32:01.813Z,53.35
2024-03-16T07:34:28.311Z,53.53
2024-03-16T07:36:54.935Z,53.58
2024-03-16T07:39:22.333Z,52.20
2024-03-16T07:41:50.605Z,51.14
2024-03-16T07:44:18.780Z,49.64
2024-03-16T07:46:48.010Z,45.98
2024-03-16T07:49:14.512Z,44.69
2024-03-16T07:51:41.086Z,45.03
2024-03-16T07:54:13.131Z,43.11
2024-03-16T07:56:40.537Z,44.13
2024-03-16T07:59:08.477Z,44.56
2024-03-16T08:01:34.969Z,45.98
2024-03-16T08:04:02.419Z,45.20
2024-03-16T08:06:29.554Z,44.78
2024-03-16T08:08:56.410Z,46.55
2024-03-16T08:11:22.925Z,46.99
2024-03-16T08:13:49.447Z,47.60
2024-03-16T08:16:16.609Z,47.53
2024-03-16T08:18:45.698Z,47.91
2024-03-16T08:21:15.582Z,48.01
2024-03-16T08:23:42.441Z,47.69
2024-03-16T08:26:10.802Z,47.02
2024-03-16T08:28:37.932Z,47.42
2024-03-16T08:31:06.570Z,47.95
2024-03-16T08:33:33.621Z,47.29
2024-03-16T08:36:00.771Z,46.88
2024-03-16T08:38:28.319Z,47.74
2024-03-16T08:40:56.517Z,47.84
2024-03-16T08:43:23.352Z,48.57
2024-03-16T08:45:50.889Z,49.73
2024-03-16T08:48:17.591Z,48.90
2024-03-16T08:50:44.152Z,47.68
2024-03-16T08:53:11.480Z,44.82
2024-03-16T08:55:38.547Z,43.95
2024-03-16T08:58:05.213Z,44.41
2024-03-16T09:00:31.791Z,43.90
2024-03-16T09:02:58.510Z,44.21
2024-03-16T09:05:26.864Z,45.96
2024-03-16T09:07:53.970Z,47.72
2024-03-16T09:10:21.812Z,48.77
2024-03-16T09:12:59.487Z,49.70
2024-03-16T09:15:27.776Z,51.08
2024-03-16T09:17:58.117Z,51.79
2024-03-16T09:20:25.142Z,52.38
2024-03-16T09:22:54.032Z,52.29
2024-03-16T09:25:24.194Z,51.73
2024-03-16T09:27:51.247Z,52.01
2024-03-16T09:30:19.544Z,51.94
2024-03-16T09:32:46.468Z,51.84
2024-03-16T09:35:13.471Z,48.66
2024-03-16T09:37:40.400Z,46.53
2024-03-16T09:40:15.296Z,46.81
2024-03-16T09:42:42.691Z,46.48
